createdAt,value
2022-10-11T00:01:23.548Z,95624.34
2022-10-11T00:03:50.188Z,95618.31
2022-10-11T00:06:16.897Z,95620.59
2022-10-11T00:08:43.525Z,95618.53
2022-10-11T00:11:11.087Z,95617.22
2022-10-11T00:13:37.662Z,95624.41
2022-10-11T00:16:12.408Z,95634.38
2022-10-11T00:18:39.889Z,95632.00
2022-10-11T00:21:09.753Z,95635.63
2022-10-11T00:23:36.600Z,95630.44
2022-10-11T00:26:07.290Z,95649.38
2022-10-11T00:28:35.310Z,95648.69
2022-10-11T00:31:03.821Z,95643.47
2022-10-11T00:33:30.618Z,95648.50
2022-10-11T00:36:00.010Z,95644.03
2022-10-11T00:38:26.798Z,95646.66
2022-10-11T00:40:54.035Z,95639.97
2022-10-11T00:43:24.941Z,95642.00
2022-10-11T00:45:57.634Z,95636.53
2022-10-11T00:48:29.644Z,95628.53
2022-10-11T00:51:01.136Z,95638.34
2022-10-11T00:53:31.557Z,95643.91
2022-10-11T00:56:25.560Z,95638.22
2022-10-11T00:58:55.280Z,95638.78
2022-10-11T01:01:22.055Z,95634.41
2022-10-11T01:03:49.306Z,95639.16
2022-10-11T01:06:16.128Z,95641.56
2022-10-11T01:08:44.307Z,95639.25
2022-10-11T01:11:17.310Z,95640.44
2022-10-11T01:14:02.614Z,95645.81
2022-10-11T01:16:38.164Z,95632.91
2022-10-11T01:19:06.140Z,95628.88
2022-10-11T01:22:11.835Z,95625.19
2022-10-11T01:24:44.608Z,95627.72
2022-10-11T01:27:37.486Z,95622.25
2022-10-11T01:30:18.810Z,95625.75
2022-10-11T01:33:00.651Z,95624.69
2022-10-11T01:35:41.255Z,95620.50
2022-10-11T01:38:22.486Z,95622.25
2022-10-11T01:40:57.471Z,95620.78
2022-10-11T01:43:26.987Z,95626.44
2022-10-11T01:45:57.531Z,95621.41
2022-10-11T01:48:25.011Z,95624.56
2022-10-11T01:50:56.647Z,95628.38
2022-10-11T01:53:45.858Z,95613.63
2022-10-11T01:56:50.345Z,95613.75
2022-10-11T01:59:22.206Z,95618.00
2022-10-11T02:02:01.879Z,95616.22
2022-10-11T02:04:45.162Z,95613.44
2022-10-11T02:07:43.509Z,95617.56
2022-10-11T02:10:26.253Z,95614.31
2022-10-11T02:13:15.516Z,95606.34
2022-10-11T02:15:47.666Z,95618.25
2022-10-11T02:18:19.379Z,95610.09
2022-10-11T02:20:49.401Z,95612.75
2022-10-11T02:23:39.141Z,95600.72
2022-10-11T02:26:09.634Z,95608.72
2022-10-11T02:28:41.934Z,95606.19
2022-10-11T02:31:12.413Z,95601.13
2022-10-11T02:33:53.388Z,95604.38
2022-10-11T02:36:30.166Z,95596.19
2022-10-11T02:39:06.893Z,95596.66
2022-10-11T02:41:41.424Z,95598.63
2022-10-11T02:44:14.576Z,95598.97
2022-10-11T02:46:44.854Z,95602.97
2022-10-11T02:49:13.029Z,95603.03
2022-10-11T02:51:39.721Z,95594.84
2022-10-11T02:54:06.403Z,95593.78
2022-10-11T02:56:32.979Z,95596.41
2022-10-11T02:58:59.571Z,95595.13
2022-10-11T03:01:26.352Z,95604.25
2022-10-11T03:03:53.076Z,95599.53
2022-10-11T03:06:19.676Z,95602.09
2022-10-11T03:08:46.305Z,95604.75
2022-10-11T03:11:12.914Z,95612.00
2022-10-11T03:13:39.505Z,95602.66
2022-10-11T03:16:06.088Z,95606.31
2022-10-11T03:18:32.679Z,95612.94
2022-10-11T03:20:59.272Z,95610.19
2022-10-11T03:23:25.922Z,95606.56
2022-10-11T03:25:52.525Z,95606.47
2022-10-11T03:28:20.435Z,95604.38
2022-10-11T03:30:49.887Z,95608.75
2022-10-11T03:33:17.035Z,95610.50
2022-10-11T03:35:48.672Z,95600.34
2022-10-11T03:38:19.346Z,95607.03
2022-10-11T03:40:46.220Z,95611.44
2022-10-11T03:43:13.037Z,95609.91
2022-10-11T03:45:39.722Z,95615.81
2022-10-11T03:48:06.566Z,95614.09
2022-10-11T03:50:33.273Z,95615.59
2022-10-11T03:53:00.155Z,95616.81
2022-10-11T03:55:26.892Z,95613.63
2022-10-11T03:57:53.526Z,95613.44
2022-10-11T04:00:20.644Z,95616.41
2022-10-11T04:02:47.319Z,95619.50
2022-10-11T04:05:14.662Z,95613.59
2022-10-11T04:07:41.361Z,95614.81
2022-10-11T04:10:08.706Z,95619.25
2022-10-11T04:12:37.492Z,95625.56
2022-10-11T04:15:05.799Z,95616.63
2022-10-11T04:17:32.506Z,95619.28
2022-10-11T04:19:59.089Z,95623.31
2022-10-11T04:22:25.692Z,95615.34
2022-10-11T04:24:52.397Z,95617.84
2022-10-11T04:27:18.986Z,95623.22
2022-10-11T04:29:45.566Z,95622.06
2022-10-11T04:32:12.195Z,95630.13
2022-10-11T04:34:38.838Z,95622.53
2022-10-11T04:37:05.564Z,95623.28
2022-10-11T04:39:32.157Z,95619.97
2022-10-11T04:41:58.797Z,95617.78
2022-10-11T04:44:25.375Z,95621.47
2022-10-11T04:46:51.970Z,95627.88
2022-10-11T04:49:18.619Z,95636.13
2022-10-11T04:51:45.255Z,95630.53
2022-10-11T04:54:12.132Z,95635.28
2022-10-11T04:56:38.784Z,95634.34
2022-10-11T04:59:05.384Z,95636.66
2022-10-11T05:01:32.004Z,95642.59
2022-10-11T05:03:58.997Z,95629.00
2022-10-11T05:06:25.554Z,95629.34
2022-10-11T05:08:52.412Z,95639.34
2022-10-11T05:11:19.001Z,95634.97
2022-10-11T05:13:46.528Z,95631.91
2022-10-11T05:16:15.265Z,95634.75
2022-10-11T05:18:42.943Z,95632.06
2022-10-11T05:21:19.016Z,95637.75
2022-10-11T05:23:48.312Z,95629.25
2022-10-11T05:26:15.832Z,95636.69
2022-10-11T05:28:42.617Z,95632.72
2022-10-11T05:31:09.685Z,95628.75
2022-10-11T05:33:36.919Z,95636.50
2022-10-11T05:36:04.230Z,95638.72
2022-10-11T05:38:31.079Z,95645.78
2022-10-11T05:41:02.566Z,95649.28
2022-10-11T05:43:30.438Z,95655.66
2022-10-11T05:45:58.145Z,95646.31
2022-10-11T05:48:24.815Z,95650.19
2022-10-11T05:50:51.396Z,95655.75
2022-10-11T05:53:18.499Z,95647.59
2022-10-11T05:55:45.844Z,95645.69
2022-10-11T05:58:15.024Z,95647.59
2022-10-11T06:00:41.827Z,95653.44
2022-10-11T06:03:12.682Z,95649.31
2022-10-11T06:05:42.105Z,95643.81
2022-10-11T06:08:09.790Z,95656.72
2022-10-11T06:10:38.640Z,95657.31
2022-10-11T06:13:06.141Z,95657.06
2022-10-11T06:15:33.860Z,95651.91
2022-10-11T06:18:00.682Z,95664.78
2022-10-11T06:20:27.407Z,95659.88
2022-10-11T06:22:54.062Z,95674.44
2022-10-11T06:25:21.102Z,95669.38
2022-10-11T06:27:47.917Z,95672.75
2022-10-11T06:30:14.575Z,95672.44
2022-10-11T06:32:41.217Z,95674.41
2022-10-11T06:35:08.320Z,95675.34
2022-10-11T06:37:34.958Z,95668.38
2022-10-11T06:40:01.573Z,95674.16
2022-10-11T06:42:28.227Z,95675.09
2022-10-11T06:44:55.102Z,95677.06
2022-10-11T06:47:21.766Z,95684.31
2022-10-11T06:49:48.569Z,95682.63
2022-10-11T06:52:15.202Z,95685.16
2022-10-11T06:54:44.881Z,95690.03
2022-10-11T06:57:12.017Z,95684.78
2022-10-11T06:59:38.739Z,95690.34
2022-10-11T07:02:05.405Z,95689.44
2022-10-11T07:04:32.055Z,95693.09
2022-10-11T07:06:58.685Z,95705.03
2022-10-11T07:09:25.386Z,95694.38
2022-10-11T07:11:52.000Z,95700.25
2022-10-11T07:14:18.581Z,95695.91
2022-10-11T07:16:45.181Z,95695.47
2022-10-11T07:19:11.743Z,95696.69
2022-10-11T07:21:38.635Z,95695.09
2022-10-11T07:24:05.866Z,95690.09
2022-10-11T07:26:38.314Z,95695.72
2022-10-11T07:29:08.146Z,95697.69
2022-10-11T07:31:40.640Z,95695.06
2022-10-11T07:34:08.252Z,95697.22
2022-10-11T07:36:35.324Z,95691.53
2022-10-11T07:39:05.011Z,95692.00
2022-10-11T07:41:31.666Z,95689.56
2022-10-11T07:43:58.321Z,95696.69
2022-10-11T07:46:24.927Z,95691.56
2022-10-11T07:48:51.730Z,95692.47
2022-10-11T07:51:23.622Z,95691.75
2022-10-11T07:53:53.529Z,95692.88
2022-10-11T07:56:23.398Z,95688.03
2022-10-11T07:58:52.406Z,95697.00
2022-10-11T08:01:22.044Z,95693.78
2022-10-11T08:03:49.570Z,95694.72
2022-10-11T08:06:19.544Z,95695.63
2022-10-11T08:08:46.870Z,95698.19
2022-10-11T08:11:23.384Z,95698.22
2022-10-11T08:13:50.339Z,95698.81
2022-10-11T08:16:17.151Z,95698.88
2022-10-11T08:18:43.764Z,95697.38
2022-10-11T08:21:12.555Z,95703.78
2022-10-11T08:23:39.707Z,95695.78
2022-10-11T08:26:07.151Z,95710.28
2022-10-11T08:28:34.209Z,95697.25
2022-10-11T08:31:01.179Z,95703.16
2022-10-11T08:33:28.619Z,95708.34
2022-10-11T08:35:55.522Z,95706.66
2022-10-11T08:38:22.334Z,95704.81
2022-10-11T08:40:56.033Z,95710.13
2022-10-11T08:43:31.797Z,95707.31
2022-10-11T08:46:01.609Z,95709.25
2022-10-11T08:48:49.945Z,95706.31
2022-10-11T08:51:29.124Z,95713.75
2022-10-11T08:54:21.852Z,95713.63
2022-10-11T08:56:51.127Z,95699.84
2022-10-11T08:59:41.921Z,95716.16
2022-10-11T09:02:49.272Z,95716.44
2022-10-11T09:05:18.997Z,95713.66
2022-10-11T09:07:45.585Z,95709.91
2022-10-11T09:10:31.577Z,95711.66
2022-10-11T09:13:30.342Z,95711.88
2022-10-11T09:16:08.949Z,95709.13
2022-10-11T09:19:03.467Z,95708.56
2022-10-11T09:21:45.695Z,95707.78
2022-10-11T09:24:26.463Z,95704.53
2022-10-11T09:27:19.324Z,95703.09
2022-10-11T09:30:01.394Z,95703.78
2022-10-11T09:32:45.811Z,95706.41
2022-10-11T09:35:16.825Z,95717.44
2022-10-11T09:38:25.214Z,95707.00
2022-10-11T09:41:16.481Z,95707.81
2022-10-11T09:43:50.726Z,95706.06
2022-10-11T09:46:26.346Z,95708.44
2022-10-11T09:48:56.414Z,95705.16
2022-10-11T09:51:27.447Z,95701.09
2022-10-11T09:54:00.474Z,95697.31
2022-10-11T09:56:31.483Z,95704.97
2022-10-11T09:59:19.357Z,95706.22
2022-10-11T10:01:45.988Z,95699.97
2022-10-11T10:04:16.343Z,95704.84
2022-10-11T10:06:43.344Z,95712.66
2022-10-11T10:09:28.207Z,95706.78
2022-10-11T10:11:56.944Z,95704.25
2022-10-11T10:14:31.234Z,95702.94
2022-10-11T10:17:16.343Z,95700.00
2022-10-11T10:19:54.421Z,95691.53
2022-10-11T10:22:29.988Z,95696.22
2022-10-11T10:25:01.826Z,95695.72
2022-10-11T10:27:32.209Z,95690.34
2022-10-11T10:30:07.714Z,95686.56
2022-10-11T10:32:48.351Z,95699.69
2022-10-11T10:35:32.389Z,95697.03
2022-10-11T10:38:25.571Z,95688.88
2022-10-11T10:41:06.097Z,95693.63
2022-10-11T10:43:38.400Z,95689.56
2022-10-11T10:46:37.104Z,95689.81
2022-10-11T10:49:41.122Z,95693.34
2022-10-11T10:52:01.946Z,95681.44
2022-10-11T10:54:40.767Z,95683.91
2022-10-11T10:57:29.044Z,95686.75
2022-10-11T11:00:11.553Z,95683.97
2022-10-11T11:02:56.568Z,95686.38
2022-10-11T11:05:23.402Z,95687.88
2022-10-11T11:07:54.903Z,95690.56
2022-10-11T11:10:27.444Z,95682.91
2022-10-11T11:12:54.032Z,95681.09
2022-10-11T11:15:33.086Z,95675.88
2022-10-11T11:18:25.326Z,95680.16
2022-10-11T11:20:54.615Z,95673.47
2022-10-11T11:23:24.518Z,95675.03
2022-10-11T11:26:21.914Z,95680.34
2022-10-11T11:29:07.005Z,95674.19
2022-10-11T11:31:46.679Z,95671.47
2022-10-11T11:34:28.771Z,95670.13
2022-10-11T11:37:03.008Z,95669.41
2022-10-11T11:39:32.681Z,95671.00
2022-10-11T11:42:18.094Z,95672.00
2022-10-11T11:44:50.411Z,95669.28
2022-10-11T11:47:32.907Z,95668.22
2022-10-11T11:50:22.326Z,95669.00
2022-10-11T11:53:19.026Z,95672.00
2022-10-11T11:56:04.383Z,95668.09
2022-10-11T11:58:53.123Z,95655.28
2022-10-11T12:01:52.472Z,95658.97
2022-10-11T12:04:42.479Z,95658.50
2022-10-11T12:07:17.464Z,95662.13
2022-10-11T12:09:49.163Z,95650.84
2022-10-11T12:12:28.539Z,95649.06
2022-10-11T12:15:10.137Z,95650.84
2022-10-11T12:17:55.149Z,95646.91
2022-10-11T12:20:31.515Z,95645.63
2022-10-11T12:22:59.665Z,95640.84
2022-10-11T12:25:26.360Z,95634.13
2022-10-11T12:27:56.526Z,95638.16
2022-10-11T12:30:44.958Z,95625.81
2022-10-11T12:33:18.032Z,95631.75
2022-10-11T12:35:55.538Z,95624.19
2022-10-11T12:38:27.960Z,95625.84
2022-10-11T12:41:19.508Z,95626.72
2022-10-11T12:43:49.090Z,95615.16
2022-10-11T12:46:28.136Z,95610.91
2022-10-11T12:49:31.580Z,95613.31
2022-10-11T12:52:00.201Z,95611.16
2022-10-11T12:54:33.309Z,95609.59
2022-10-11T12:57:12.165Z,95614.88
2022-10-11T12:59:45.503Z,95611.72
2022-10-11T13:02:30.123Z,95604.72
2022-10-11T13:05:19.754Z,95611.16
2022-10-11T13:07:48.064Z,95609.56
2022-10-11T13:10:20.096Z,95607.91
2022-10-11T13:12:49.042Z,95603.13
2022-10-11T13:15:20.699Z,95604.19
2022-10-11T13:17:47.754Z,95601.50
2022-10-11T13:20:17.598Z,95597.75
2022-10-11T13:22:47.703Z,95601.22
2022-10-11T13:25:20.695Z,95594.78
2022-10-11T13:27:51.043Z,95595.34
2022-10-11T13:30:26.559Z,95590.50
2022-10-11T13:32:54.568Z,95592.34
2022-10-11T13:35:36.537Z,95580.63
2022-10-11T13:38:08.300Z,95584.03
2022-10-11T13:40:36.129Z,95582.28
2022-10-11T13:43:05.980Z,95587.31
2022-10-11T13:45:33.389Z,95581.31
2022-10-11T13:48:00.356Z,95580.06
2022-10-11T13:50:30.955Z,95575.22
2022-10-11T13:53:22.778Z,95582.41
2022-10-11T13:55:52.373Z,95574.69
2022-10-11T13:58:39.145Z,95576.03
2022-10-11T14:01:18.079Z,95569.63
2022-10-11T14:03:52.328Z,95576.31
2022-10-11T14:06:19.531Z,95567.72
2022-10-11T14:08:51.638Z,95573.22
2022-10-11T14:11:35.220Z,95567.81
2022-10-11T14:14:29.183Z,95571.88
2022-10-11T14:16:57.832Z,95563.56
2022-10-11T14:19:24.848Z,95560.31
2022-10-11T14:21:53.230Z,95564.25
2022-10-11T14:24:21.051Z,95563.81
2022-10-11T14:26:53.859Z,95570.25
2022-10-11T14:29:33.490Z,95572.63
2022-10-11T14:32:08.285Z,95568.34
2022-10-11T14:34:35.758Z,95563.22
2022-10-11T14:37:02.589Z,95562.44
2022-10-11T14:39:32.165Z,95568.94
2022-10-11T14:41:59.382Z,95564.94
2022-10-11T14:44:26.032Z,95561.06
2022-10-11T14:46:54.921Z,95563.56
2022-10-11T14:49:28.071Z,95561.06
2022-10-11T14:51:58.207Z,95563.38
2022-10-11T14:54:28.141Z,95563.66
2022-10-11T14:56:58.542Z,95563.91
2022-10-11T14:59:28.469Z,95559.09
2022-10-11T15:01:55.085Z,95561.75
2022-10-11T15:04:24.263Z,95559.56
2022-10-11T15:06:52.869Z,95556.78
2022-10-11T15:09:20.566Z,95564.19
2022-10-11T15:11:49.170Z,95562.56
2022-10-11T15:14:18.488Z,95563.53
2022-10-11T15:16:45.183Z,95556.53
2022-10-11T15:19:21.244Z,95553.25
2022-10-11T15:21:47.944Z,95561.84
2022-10-11T15:24:15.026Z,95561.97
2022-10-11T15:26:42.233Z,95552.81
2022-10-11T15:29:11.709Z,95561.81
2022-10-11T15:31:39.135Z,95562.63
2022-10-11T15:34:05.882Z,95552.88
2022-10-11T15:36:32.489Z,95557.75
2022-10-11T15:38:59.155Z,95550.19
2022-10-11T15:41:25.888Z,95550.78
2022-10-11T15:43:53.853Z,95553.19
2022-10-11T15:46:22.580Z,95552.88
2022-10-11T15:48:51.170Z,95547.44
2022-10-11T15:51:18.303Z,95556.31
2022-10-11T15:53:45.220Z,95549.06
2022-10-11T15:56:17.215Z,95557.19
2022-10-11T15:58:44.557Z,95550.25
2022-10-11T16:01:18.389Z,95555.91
2022-10-11T16:03:47.547Z,95550.84
2022-10-11T16:06:14.356Z,95551.88
2022-10-11T16:08:41.001Z,95555.69
2022-10-11T16:11:09.062Z,95562.09
2022-10-11T16:13:36.541Z,95559.44
2022-10-11T16:16:05.776Z,95563.53
2022-10-11T16:18:35.582Z,95564.44
2022-10-11T16:21:07.581Z,95566.31
2022-10-11T16:23:34.816Z,95566.84
2022-10-11T16:26:06.412Z,95566.91
2022-10-11T16:28:33.476Z,95573.19
2022-10-11T16:31:00.475Z,95581.13
2022-10-11T16:33:27.620Z,95578.34
2022-10-11T16:35:54.233Z,95580.59
2022-10-11T16:38:20.939Z,95572.41
2022-10-11T16:40:47.531Z,95586.53
2022-10-11T16:43:14.124Z,95588.19
2022-10-11T16:45:40.725Z,95585.44
2022-10-11T16:48:07.402Z,95586.03
2022-10-11T16:50:39.119Z,95586.16
2022-10-11T16:53:06.372Z,95587.75
2022-10-11T16:55:33.125Z,95593.59
2022-10-11T16:57:59.814Z,95597.81
2022-10-11T17:00:26.611Z,95593.59
2022-10-11T17:02:53.276Z,95599.78
2022-10-11T17:05:19.897Z,95600.63
2022-10-11T17:07:46.501Z,95606.25
2022-10-11T17:10:13.461Z,95594.44
2022-10-11T17:12:40.314Z,95596.66
2022-10-11T17:15:10.623Z,95592.91
2022-10-11T17:17:37.301Z,95602.97
2022-10-11T17:20:04.282Z,95602.97
2022-10-11T17:22:30.866Z,95591.03
2022-10-11T17:24:57.669Z,95595.09
2022-10-11T17:27:24.285Z,95585.78
2022-10-11T17:29:50.881Z,95585.00
2022-10-11T17:32:17.846Z,95593.59
2022-10-11T17:34:44.579Z,95592.53
2022-10-11T17:37:11.258Z,95600.06
2022-10-11T17:39:37.885Z,95596.69
2022-10-11T17:42:04.643Z,95607.09
2022-10-11T17:44:31.297Z,95603.06
2022-10-11T17:46:57.956Z,95605.69
2022-10-11T17:49:24.612Z,95604.34
2022-10-11T17:51:51.264Z,95602.22
2022-10-11T17:54:17.900Z,95606.38
2022-10-11T17:56:44.537Z,95613.56
2022-10-11T17:59:16.676Z,95597.09
2022-10-11T18:01:43.394Z,95604.66
2022-10-11T18:04:10.026Z,95610.00
2022-10-11T18:06:39.573Z,95606.34
2022-10-11T18:09:06.445Z,95606.44
2022-10-11T18:11:33.218Z,95606.09
2022-10-11T18:14:00.351Z,95610.72
2022-10-11T18:16:31.996Z,95615.81
2022-10-11T18:18:59.524Z,95611.88
2022-10-11T18:21:33.416Z,95612.00
2022-10-11T18:24:03.000Z,95615.47
2022-10-11T18:26:30.874Z,95617.81
2022-10-11T18:28:58.640Z,95611.94
2022-10-11T18:31:29.340Z,95617.47
2022-10-11T18:33:56.093Z,95610.63
2022-10-11T18:36:25.295Z,95608.50
2022-10-11T18:38:54.473Z,95608.22
2022-10-11T18:41:23.122Z,95605.38
2022-10-11T18:43:55.099Z,95606.72
2022-10-11T18:46:23.130Z,95619.28
2022-10-11T18:48:52.224Z,95603.06
2022-10-11T18:51:22.414Z,95607.09
2022-10-11T18:53:49.216Z,95611.00
2022-10-11T18:56:18.811Z,95602.94
2022-10-11T18:58:45.417Z,95602.88
2022-10-11T19:01:21.090Z,95602.06
2022-10-11T19:03:50.906Z,95593.22
2022-10-11T19:06:20.678Z,95592.84
2022-10-11T19:08:50.497Z,95595.84
2022-10-11T19:11:18.318Z,95589.06
2022-10-11T19:13:44.960Z,95582.44
2022-10-11T19:16:17.653Z,95579.09
2022-10-11T19:18:44.692Z,95587.59
2022-10-11T19:21:13.187Z,95591.38
2022-10-11T19:23:45.223Z,95602.97
2022-10-11T19:26:19.294Z,95602.44
2022-10-11T19:28:47.468Z,95601.09
2022-10-11T19:31:16.162Z,95601.69
2022-10-11T19:33:44.829Z,95610.13
2022-10-11T19:36:13.849Z,95613.97
2022-10-11T19:38:44.818Z,95618.72
2022-10-11T19:41:12.873Z,95622.19
2022-10-11T19:43:39.502Z,95629.78
2022-10-11T19:46:08.777Z,95627.16
2022-10-11T19:48:39.486Z,95628.28
2022-10-11T19:51:09.530Z,95627.03
2022-10-11T19:53:36.464Z,95636.09
2022-10-11T19:56:06.818Z,95627.94
2022-10-11T19:58:33.591Z,95638.88
2022-10-11T20:01:04.867Z,95637.53
2022-10-11T20:03:32.393Z,95631.69
2022-10-11T20:06:00.817Z,95636.13
2022-10-11T20:08:28.221Z,95638.47
2022-10-11T20:10:55.043Z,95637.66
2022-10-11T20:13:21.923Z,95638.88
2022-10-11T20:15:48.517Z,95638.72
2022-10-11T20:18:15.286Z,95641.72
2022-10-11T20:20:51.684Z,95640.63
2022-10-11T20:23:18.896Z,95644.81
2022-10-11T20:26:06.155Z,95648.31
2022-10-11T20:28:34.431Z,95648.63
2022-10-11T20:31:03.995Z,95650.66
2022-10-11T20:33:32.437Z,95652.19
2022-10-11T20:36:01.339Z,95652.66
2022-10-11T20:38:29.661Z,95652.56
2022-10-11T20:40:56.987Z,95658.97
2022-10-11T20:43:24.607Z,95658.75
2022-10-11T20:46:00.681Z,95655.97
2022-10-11T20:48:28.031Z,95652.00
2022-10-11T20:50:55.081Z,95649.38
2022-10-11T20:53:22.292Z,95650.59
2022-10-11T20:55:49.562Z,95644.44
2022-10-11T20:58:16.830Z,95644.72
2022-10-11T21:00:44.209Z,95648.59
2022-10-11T21:03:12.025Z,95650.50
2022-10-11T21:05:38.992Z,95652.00
2022-10-11T21:08:07.355Z,95655.06
2022-10-11T21:10:34.127Z,95656.88
2022-10-11T21:13:00.787Z,95659.53
2022-10-11T21:15:30.016Z,95652.59
2022-10-11T21:17:57.203Z,95654.69
2022-10-11T21:20:24.761Z,95654.19
2022-10-11T21:22:51.452Z,95649.47
2022-10-11T21:25:18.083Z,95654.84
2022-10-11T21:27:44.690Z,95664.44
2022-10-11T21:30:11.415Z,95664.59
2022-10-11T21:32:38.229Z,95667.47
2022-10-11T21:35:05.002Z,95663.56
2022-10-11T21:37:32.030Z,95674.97
2022-10-11T21:39:58.872Z,95676.56
2022-10-11T21:42:29.420Z,95667.22
2022-10-11T21:44:56.294Z,95665.97
2022-10-11T21:47:22.973Z,95662.44
2022-10-11T21:49:49.607Z,95660.91
2022-10-11T21:52:16.240Z,95666.31
2022-10-11T21:54:42.916Z,95667.69
2022-10-11T21:57:09.543Z,95655.44
2022-10-11T21:59:36.289Z,95662.19
2022-10-11T22:02:02.976Z,95661.50
2022-10-11T22:04:29.883Z,95662.69
2022-10-11T22:06:56.501Z,95659.19
2022-10-11T22:09:23.160Z,95657.78
2022-10-11T22:11:49.791Z,95662.00
2022-10-11T22:14:17.437Z,95663.97
2022-10-11T22:16:44.044Z,95655.81
2022-10-11T22:19:10.716Z,95664.22
2022-10-11T22:21:41.285Z,95653.41
2022-10-11T22:24:10.700Z,95658.13
2022-10-11T22:26:37.332Z,95658.72
2022-10-11T22:29:04.035Z,95660.47
2022-10-11T22:31:31.249Z,95667.25
2022-10-11T22:34:00.740Z,95667.94
2022-10-11T22:36:29.011Z,95666.94
2022-10-11T22:38:56.173Z,95670.63
2022-10-11T22:41:23.699Z,95664.09
2022-10-11T22:43:50.335Z,95669.00
2022-10-11T22:46:16.956Z,95665.25
2022-10-11T22:48:43.544Z,95664.44
2022-10-11T22:51:10.193Z,95664.75
2022-10-11T22:53:36.785Z,95664.94
2022-10-11T22:56:03.688Z,95665.09
2022-10-11T22:58:30.414Z,95672.53
2022-10-11T23:00:57.062Z,95667.34
2022-10-11T23:03:23.745Z,95666.69
2022-10-11T23:05:55.292Z,95677.41
2022-10-11T23:08:23.029Z,95675.59
2022-10-11T23:10:49.792Z,95678.91
2022-10-11T23:13:16.751Z,95676.56
2022-10-11T23:15:43.486Z,95678.13
2022-10-11T23:18:10.179Z,95673.97
2022-10-11T23:20:39.032Z,95683.78
2022-10-11T23:23:06.436Z,95683.28
2022-10-11T23:25:33.071Z,95681.09
2022-10-11T23:28:00.560Z,95682.84
2022-10-11T23:30:31.393Z,95679.34
2022-10-11T23:32:57.993Z,95673.06
2022-10-11T23:35:24.665Z,95685.38
2022-10-11T23:37:53.415Z,95680.75
2022-10-11T23:40:20.043Z,95677.94
2022-10-11T23:42:46.679Z,95674.25
2022-10-11T23:45:13.290Z,95689.41
2022-10-11T23:47:40.421Z,95691.38
2022-10-11T23:50:08.089Z,95691.94
2022-10-11T23:52:34.682Z,95689.31
2022-10-11T23:55:01.283Z,95681.13
2022-10-11T23:57:27.903Z,95685.81
2022-10-11T23:59:54.495Z,95683.84
